Time;durP1;ratioP1;P1;durP2;ratioP2;P2;SDS_P1;SDS_P2;PMS_P1;PMS_P2;Temp;Humidity;BMP_temperature;BMP_pressure;BME280_temperature;BME280_humidity;BME280_pressure;Samples;Min_cycle;Max_cycle;Signal;HPM_P1;HPM_P2
2022/01/30 00:05:10;;;;;;;1999.90;999.90;;;;;;;8.01;59.75;100451.03;15674245;28;20133;-57
2022/01/30 00:12:49;;;;;;;1999.90;999.90;;;;;;;7.94;59.43;100442.38;15673641;28;20152;-57
2022/01/30 00:20:25;;;;;;;1999.90;999.90;;;;;;;7.98;58.87;100433.06;15675204;28;20045;-57
2022/01/30 00:28:05;;;;;;;1999.90;999.90;;;;;;;7.90;59.43;100461.63;15673130;28;20462;-57
2022/01/30 00:35:38;;;;;;;1999.90;999.90;;;;;;;7.82;60.76;100470.78;15683772;28;20370;-57
2022/01/30 00:43:12;;;;;;;1999.90;999.90;;;;;;;7.54;62.06;100461.81;15671844;28;20052;-56
2022/01/30 00:50:44;;;;;;;1999.90;999.90;;;;;;;7.65;61.80;100446.50;15654948;28;20045;-53
2022/01/30 00:58:18;;;;;;;1999.90;999.90;;;;;;;7.70;60.89;100442.75;15657912;28;20578;-58
2022/01/30 01:05:53;;;;;;;1999.90;999.90;;;;;;;8.07;58.68;100424.75;15668988;28;20412;-59
2022/01/30 01:29:09;;;;;;;1999.90;999.90;;;;;;;8.19;56.44;100382.44;15609866;28;20044;-58
2022/01/30 01:36:41;;;;;;;1999.90;999.90;;;;;;;8.01;56.56;100376.84;15668248;28;20087;-59
2022/01/30 01:44:17;;;;;;;1999.90;999.90;;;;;;;8.04;56.89;100386.50;15669319;28;20036;-57
2022/01/30 01:52:03;;;;;;;1999.90;999.90;;;;;;;8.19;56.35;100354.63;15666274;28;20045;-57
2022/01/30 01:59:36;;;;;;;1999.90;999.90;;;;;;;8.25;56.41;100367.25;15666547;28;20037;-55
2022/01/30 02:15:47;;;;;;;1999.90;999.90;;;;;;;8.21;56.45;100396.81;15625868;28;20455;-58
2022/01/30 02:31:19;;;;;;;1999.90;999.90;;;;;;;7.89;57.88;100381.38;15666424;28;20041;-58
2022/01/30 02:38:56;;;;;;;1999.90;999.90;;;;;;;8.16;58.06;100405.31;15665664;28;20049;-56
2022/01/30 02:46:33;;;;;;;1999.90;999.90;;;;;;;7.97;59.11;100384.19;15649106;28;20064;-57
2022/01/30 02:54:07;;;;;;;1999.90;999.90;;;;;;;7.92;59.27;100378.81;15678017;28;20055;-58
2022/01/30 03:01:42;;;;;;;1999.90;999.90;;;;;;;7.92;58.36;100356.56;15677497;28;20106;-59
2022/01/30 03:09:16;;;;;;;1999.90;999.90;;;;;;;8.25;57.90;100379.19;15660258;28;20107;-58
2022/01/30 03:16:48;;;;;;;1999.90;999.90;;;;;;;8.19;58.16;100424.13;15689154;28;20067;-61
2022/01/30 03:24:21;;;;;;;1999.90;999.90;;;;;;;6.98;67.97;100462.41;15695597;22;20419;-67
2022/01/30 03:31:54;;;;;;;1999.90;999.90;;;;;;;7.27;67.04;100429.47;15703775;28;20047;-65
2022/01/30 03:39:28;;;;;;;1999.90;999.90;;;;;;;7.64;64.91;100413.50;15676110;28;20136;-66
2022/01/30 03:47:04;;;;;;;1999.90;999.90;;;;;;;7.25;63.20;100370.72;15717398;28;20032;-66
2022/01/30 03:54:41;;;;;;;1999.90;999.90;;;;;;;7.75;61.96;100400.97;15695071;28;20041;-67
2022/01/30 04:02:13;;;;;;;1999.90;999.90;;;;;;;7.27;63.76;100354.53;15692884;28;20419;-66
2022/01/30 04:09:48;;;;;;;1999.90;999.90;;;;;;;7.16;64.52;100386.50;15694301;28;20136;-66
2022/01/30 04:17:37;;;;;;;1999.90;999.90;;;;;;;7.14;64.15;100388.78;15691684;28;20039;-67
2022/01/30 04:25:37;;;;;;;1999.90;999.90;;;;;;;7.19;64.20;100410.81;15691673;28;20110;-67
2022/01/30 04:33:42;;;;;;;1999.90;999.90;;;;;;;7.08;66.36;100421.38;15679871;28;20135;-66
2022/01/30 04:58:00;;;;;;;1999.90;999.90;;;;;;;6.73;68.44;100445.28;15693135;28;20465;-66
2022/01/30 05:06:04;;;;;;;1999.90;999.90;;;;;;;6.88;66.08;100439.38;15674421;28;20521;-66
2022/01/30 05:14:00;;;;;;;1999.90;999.90;;;;;;;7.08;63.29;100424.13;15673681;28;20048;-66
2022/01/30 05:22:06;;;;;;;1999.90;999.90;;;;;;;6.93;62.24;100450.31;15657088;28;20140;-67
2022/01/30 05:30:03;;;;;;;1999.90;999.90;;;;;;;7.37;61.32;100462.53;15676865;28;20049;-67
2022/01/30 05:37:45;;;;;;;1999.90;999.90;;;;;;;7.40;61.40;100470.25;15673668;28;20052;-66
2022/01/30 05:46:08;;;;;;;1999.90;999.90;;;;;;;7.10;62.04;100457.97;15529673;28;20596;-66
2022/01/30 05:53:54;;;;;;;1999.90;999.90;;;;;;;7.24;61.35;100499.50;15678009;28;20048;-68
2022/01/30 06:01:31;;;;;;;1999.90;999.90;;;;;;;7.32;61.16;100532.06;15677109;28;20059;-66
2022/01/30 06:09:24;;;;;;;1999.90;999.90;;;;;;;7.48;60.61;100504.72;15670849;28;20468;-67
2022/01/30 06:17:00;;;;;;;1999.90;999.90;;;;;;;7.31;60.64;100541.53;15680175;28;20567;-66
2022/01/30 06:24:50;;;;;;;1999.90;999.90;;;;;;;7.47;60.33;100530.84;15703436;28;20057;-66
2022/01/30 06:32:56;;;;;;;1999.90;999.90;;;;;;;7.40;60.79;100561.84;15730888;28;20132;-65
2022/01/30 06:41:04;;;;;;;1999.90;999.90;;;;;;;7.25;61.48;100553.88;15645244;28;20045;-66
2022/01/30 06:48:56;;;;;;;1999.90;999.90;;;;;;;7.44;60.19;100542.59;15685655;28;20149;-66
2022/01/30 06:57:03;;;;;;;1999.90;999.90;;;;;;;7.39;59.68;100512.97;15680100;28;20509;-66
2022/01/30 07:04:56;;;;;;;1999.90;999.90;;;;;;;7.46;58.64;100518.09;15674158;28;20049;-66
2022/01/30 07:12:48;;;;;;;1999.90;999.90;;;;;;;7.37;59.35;100537.47;15679080;28;20052;-66
2022/01/30 07:20:22;;;;;;;1999.90;999.90;;;;;;;7.37;58.91;100531.09;15650577;28;20129;-66
2022/01/30 07:27:54;;;;;;;1999.90;999.90;;;;;;;7.55;57.98;100552.28;15686464;28;20041;-67
2022/01/30 07:35:27;;;;;;;1999.90;999.90;;;;;;;7.56;57.90;100578.09;15687592;28;20052;-66
2022/01/30 07:42:59;;;;;;;1999.90;999.90;;;;;;;7.53;58.53;100599.00;15685491;28;20041;-66
2022/01/30 07:50:33;;;;;;;1999.90;999.90;;;;;;;7.67;57.94;100616.41;15707667;28;20037;-66
2022/01/30 07:58:06;;;;;;;1999.90;999.90;;;;;;;7.41;58.25;100596.78;15707660;28;20477;-66
2022/01/30 08:05:39;;;;;;;1999.90;999.90;;;;;;;7.51;57.54;100643.75;15714264;28;20041;-67
2022/01/30 08:13:14;;;;;;;1999.90;999.90;;;;;;;8.05;56.26;100666.03;15705495;28;20476;-66
2022/01/30 08:20:47;;;;;;;1999.90;999.90;;;;;;;7.82;56.12;100663.25;15661358;28;20071;-67
2022/01/30 08:28:19;;;;;;;1999.90;999.90;;;;;;;7.99;54.65;100695.06;15728478;28;20040;-67
2022/01/30 08:35:53;;;;;;;1999.90;999.90;;;;;;;7.79;54.61;100729.72;15649171;28;20073;-66
2022/01/30 08:43:26;;;;;;;1999.90;999.90;;;;;;;8.22;54.51;100759.81;15705366;28;20124;-67
2022/01/30 08:50:59;;;;;;;1999.90;999.90;;;;;;;8.03;55.07;100744.16;15651041;28;20897;-66
2022/01/30 08:58:33;;;;;;;;;;;;;;;8.13;54.86;100770.03;15696826;28;20044;-66
2022/01/30 09:06:09;;;;;;;1999.90;999.90;;;;;;;8.17;55.21;100790.53;15674049;28;19927;-67
2022/01/30 09:13:41;;;;;;;;;;;;;;;8.18;56.02;100787.41;15689669;28;20049;-66
2022/01/30 09:21:14;;;;;;;1999.90;999.90;;;;;;;8.20;55.48;100796.25;15705900;28;19920;-63
2022/01/30 09:28:46;;;;;;;1999.90;999.90;;;;;;;8.16;55.31;100811.13;15743575;22;20154;-57
2022/01/30 09:36:21;;;;;;;1999.90;999.90;;;;;;;8.23;55.35;100822.59;15706943;28;20094;-56
2022/01/30 09:43:53;;;;;;;1999.90;999.90;;;;;;;8.40;55.27;100817.22;15758787;28;20052;-58
2022/01/30 09:51:26;;;;;;;1999.90;999.90;;;;;;;8.37;55.20;100860.38;15741990;28;20060;-56
2022/01/30 09:58:58;;;;;;;1999.90;999.90;;;;;;;8.51;55.44;100851.97;15774833;28;20083;-56
2022/01/30 10:07:00;;;;;;;1999.90;999.90;;;;;;;8.71;54.47;100836.72;15748794;28;20114;-58
2022/01/30 10:14:33;;;;;;;1999.90;999.90;;;;;;;9.31;53.15;100879.97;15720571;28;20055;-60
2022/01/30 10:22:08;;;;;;;1999.90;999.90;;;;;;;9.21;53.31;100912.50;15772167;28;20465;-59
2022/01/30 10:29:40;;;;;;;1999.90;999.90;;;;;;;9.29;52.99;100918.47;15758774;28;20179;-53
2022/01/30 10:37:16;;;;;;;1999.90;999.90;;;;;;;8.75;53.52;100918.41;15716677;28;20037;-57
2022/01/30 10:44:48;;;;;;;1999.90;999.90;;;;;;;8.74;54.39;100952.94;15699530;28;20041;-56
2022/01/30 10:52:22;;;;;;;1999.90;999.90;;;;;;;8.63;54.41;100962.66;15697743;28;20044;-59
2022/01/30 10:59:56;;;;;;;1999.90;999.90;;;;;;;8.97;54.02;100970.50;15706500;28;20167;-57
2022/01/30 11:07:30;;;;;;;1999.90;999.90;;;;;;;9.00;53.94;100975.41;15714845;28;20037;-56
2022/01/30 11:15:18;;;;;;;1999.90;999.90;;;;;;;9.05;53.77;100971.69;15713838;28;20044;-57
2022/01/30 11:22:54;;;;;;;1999.90;999.90;;;;;;;9.02;52.97;100984.28;15743012;28;20364;-55
2022/01/30 11:30:32;;;;;;;1999.90;999.90;;;;;;;9.40;52.36;101011.75;15714482;28;20040;-56
2022/01/30 11:38:06;;;;;;;1999.90;999.90;;;;;;;9.50;52.68;101022.63;15770957;28;20087;-53
2022/01/30 11:45:40;;;;;;;1999.90;999.90;;;;;;;8.93;52.30;101019.56;15771459;28;20070;-58
2022/01/30 11:53:28;;;;;;;1999.90;999.90;;;;;;;9.10;51.94;101035.59;15763333;28;20060;-57
2022/01/30 12:01:02;;;;;;;1999.90;999.90;;;;;;;9.04;52.14;101039.63;15737960;28;20063;-55
2022/01/30 12:08:47;;;;;;;1999.90;999.90;;;;;;;9.21;52.27;101060.09;15745990;28;20044;-57
2022/01/30 12:16:43;;;;;;;1999.90;999.90;;;;;;;9.28;51.50;101056.88;15772526;28;20052;-55
2022/01/30 12:24:24;;;;;;;1999.90;999.90;;;;;;;9.19;51.79;101054.03;15737864;28;20471;-53
2022/01/30 12:31:56;;;;;;;1999.90;999.90;;;;;;;8.96;51.82;101061.53;15721353;28;20614;-56
2022/01/30 12:39:30;;;;;;;1999.90;999.90;;;;;;;8.99;51.17;101060.06;15717393;28;20131;-54
2022/01/30 12:47:03;;;;;;;1999.90;999.90;;;;;;;9.23;50.85;101070.91;15719133;28;20115;-53
2022/01/30 12:54:39;;;;;;;1999.90;999.90;;;;;;;9.45;49.51;101082.06;15732982;28;20040;-58
2022/01/30 13:02:11;;;;;;;1999.90;999.90;;;;;;;9.69;49.92;101080.88;15719746;28;20114;-51
2022/01/30 13:09:44;;;;;;;1999.90;999.90;;;;;;;9.44;50.33;101077.63;15738410;28;20094;-54
2022/01/30 13:17:17;;;;;;;1999.90;999.90;;;;;;;9.58;49.99;101085.91;15717096;28;20485;-55
2022/01/30 13:24:55;;;;;;;1999.90;999.90;;;;;;;10.12;49.55;101090.34;15758242;28;20036;-58
2022/01/30 13:32:27;;;;;;;1999.90;999.90;;;;;;;9.41;49.95;101108.09;15765735;28;20052;-59
2022/01/30 13:40:14;;;;;;;1999.90;999.90;;;;;;;9.17;50.96;101108.34;15744380;28;20068;-56
2022/01/30 13:47:52;;;;;;;1999.90;999.90;;;;;;;9.48;50.99;101125.16;15763550;28;20524;-52
2022/01/30 13:55:26;;;;;;;1999.90;999.90;;;;;;;9.48;50.56;101130.72;15734254;28;20115;-57
2022/01/30 14:03:00;;;;;;;1999.90;999.90;;;;;;;9.25;50.58;101155.78;15746472;28;20040;-55
2022/01/30 14:10:34;;;;;;;1999.90;999.90;;;;;;;9.33;50.43;101164.53;15732965;28;20049;-56
2022/01/30 14:18:15;;;;;;;1999.90;999.90;;;;;;;9.17;50.82;101164.88;15708709;28;20052;-55
2022/01/30 14:25:52;;;;;;;1999.90;999.90;;;;;;;8.66;51.20;101179.88;15735701;28;20045;-57
2022/01/30 14:33:28;;;;;;;1999.90;999.90;;;;;;;8.62;50.95;101197.47;15721514;28;20044;-53
2022/01/30 14:41:01;;;;;;;1999.90;999.90;;;;;;;8.74;50.90;101210.88;15716275;28;20087;-55
2022/01/30 14:48:36;;;;;;;1999.90;999.90;;;;;;;8.56;50.93;101212.66;15705364;28;20052;-56
2022/01/30 14:56:10;;;;;;;1999.90;999.90;;;;;;;8.53;50.66;101227.97;15743927;28;20044;-54
2022/01/30 15:03:43;;;;;;;1999.90;999.90;;;;;;;8.55;50.46;101236.84;15743423;28;20045;-55
2022/01/30 15:11:16;;;;;;;1999.90;999.90;;;;;;;8.46;50.52;101235.91;15729707;28;20055;-54
2022/01/30 15:18:49;;;;;;;1999.90;999.90;;;;;;;8.17;51.08;101244.44;15707160;28;20459;-54
2022/01/30 15:26:25;;;;;;;1999.90;999.90;;;;;;;8.22;51.00;101265.75;15717878;22;20127;-60
2022/01/30 15:33:59;;;;;;;;;;;;;;;8.36;50.99;101272.25;15672483;28;20056;-61
2022/01/30 15:41:33;;;;;;;1999.90;999.90;;;;;;;8.34;51.28;101271.69;15660503;28;20024;-62
2022/01/30 15:49:09;;;;;;;1999.90;999.90;;;;;;;8.23;51.35;101284.09;15655128;28;20136;-61
2022/01/30 15:56:43;;;;;;;1999.90;999.90;;;;;;;8.25;51.17;101295.75;15682991;28;20053;-61
2022/01/30 16:04:16;;;;;;;1999.90;999.90;;;;;;;8.20;50.61;101293.06;15683723;28;20076;-63
2022/01/30 16:12:18;;;;;;;1999.90;999.90;;;;;;;8.34;50.17;101310.63;15682187;28;20037;-61
2022/01/30 16:19:52;;;;;;;1999.90;999.90;;;;;;;8.24;50.17;101305.25;15679678;28;20513;-64
2022/01/30 16:27:26;;;;;;;1999.90;999.90;;;;;;;8.03;50.06;101307.50;15621355;28;20048;-62
2022/01/30 16:35:00;;;;;;;1999.90;999.90;;;;;;;7.99;50.17;101321.16;15618326;28;20140;-60
2022/01/30 16:42:35;;;;;;;1999.90;999.90;;;;;;;8.31;49.78;101350.97;15617395;28;20041;-61
2022/01/30 16:50:08;;;;;;;1999.90;999.90;;;;;;;8.05;50.09;101339.44;15617093;28;20124;-62
2022/01/30 16:57:43;;;;;;;1999.90;999.90;;;;;;;7.94;49.97;101342.66;15616534;28;20135;-61
2022/01/30 17:05:15;;;;;;;;;;;;;;;8.13;49.65;101351.84;15615551;28;20053;-62
2022/01/30 17:13:00;;;;;;;1999.90;999.90;;;;;;;7.94;50.01;101353.78;15602102;28;20007;-62
2022/01/30 17:20:33;;;;;;;1999.90;999.90;;;;;;;7.96;49.60;101363.47;15624788;28;20235;-60
2022/01/30 17:28:09;;;;;;;1999.90;999.90;;;;;;;7.75;49.69;101373.22;15669472;28;20045;-61
2022/01/30 17:35:41;;;;;;;1999.90;999.90;;;;;;;7.72;49.41;101357.97;15630835;28;20470;-60
2022/01/30 17:43:15;;;;;;;1999.90;999.90;;;;;;;7.83;49.42;101369.78;15676642;28;20450;-61
2022/01/30 17:50:47;;;;;;;1999.90;999.90;;;;;;;7.96;49.20;101376.53;15676521;28;20053;-60
2022/01/30 17:58:21;;;;;;;1999.90;999.90;;;;;;;7.64;50.15;101366.97;15613281;28;20379;-62
2022/01/30 18:05:54;;;;;;;1999.90;999.90;;;;;;;7.52;50.26;101384.06;15639974;28;20044;-59
2022/01/30 18:13:28;;;;;;;1999.90;999.90;;;;;;;7.71;50.15;101361.03;15582491;28;20048;-63
2022/01/30 18:21:00;;;;;;;1999.90;999.90;;;;;;;7.62;50.64;101379.50;15612886;28;20121;-62
2022/01/30 18:28:34;;;;;;;1999.90;999.90;;;;;;;7.63;50.66;101376.41;15620940;28;20048;-64
2022/01/30 18:36:12;;;;;;;1999.90;999.90;;;;;;;7.61;50.80;101392.56;15612023;28;20081;-61
2022/01/30 18:43:49;;;;;;;1999.90;999.90;;;;;;;7.72;50.66;101390.47;15600636;28;20115;-62
2022/01/30 18:51:21;;;;;;;1999.90;999.90;;;;;;;7.50;50.97;101385.44;15601024;28;20152;-64
2022/01/30 18:58:54;;;;;;;1999.90;999.90;;;;;;;7.37;50.40;101400.06;15604446;28;20144;-64
2022/01/30 19:06:36;;;;;;;1999.90;999.90;;;;;;;7.49;50.25;101390.19;15602947;28;20080;-64
2022/01/30 19:14:11;;;;;;;1999.90;999.90;;;;;;;7.38;50.70;101394.19;15602579;28;20049;-63
2022/01/30 19:21:44;;;;;;;1999.90;999.90;;;;;;;7.87;49.04;101409.72;15604875;28;20323;-63
2022/01/30 19:29:17;;;;;;;1999.90;999.90;;;;;;;7.59;49.22;101392.00;15632068;28;20133;-63
2022/01/30 19:36:50;;;;;;;1999.90;999.90;;;;;;;7.33;49.65;101376.78;15616237;28;20056;-64
2022/01/30 19:44:26;;;;;;;1999.90;999.90;;;;;;;7.40;49.24;101380.03;15615101;28;20478;-63
2022/01/30 19:51:58;;;;;;;1999.90;999.90;;;;;;;7.36;48.77;101357.59;15601380;28;20042;-63
2022/01/30 19:59:33;;;;;;;1999.90;999.90;;;;;;;7.50;49.38;101372.44;15620038;28;20410;-64
2022/01/30 20:07:05;;;;;;;1999.90;999.90;;;;;;;7.14;50.13;101354.50;15612187;28;20109;-63
2022/01/30 20:14:39;;;;;;;1999.90;999.90;;;;;;;7.34;50.06;101347.91;15610414;28;20049;-60
2022/01/30 20:22:11;;;;;;;1999.90;999.90;;;;;;;7.11;50.22;101350.38;15603218;28;20090;-63
2022/01/30 20:29:45;;;;;;;1999.90;999.90;;;;;;;7.46;50.42;101359.41;15628159;28;20052;-62
2022/01/30 20:37:18;;;;;;;1999.90;999.90;;;;;;;7.14;51.73;101357.28;15626875;28;20075;-62
2022/01/30 20:44:56;;;;;;;1999.90;999.90;;;;;;;7.44;52.02;101345.81;15674450;28;20196;-63
2022/01/30 20:52:29;;;;;;;1999.90;999.90;;;;;;;6.69;53.12;101364.13;15629300;28;20034;-62
2022/01/30 21:00:10;;;;;;;1999.90;999.90;;;;;;;7.14;52.68;101371.16;15650569;28;20037;-65
2022/01/30 21:07:46;;;;;;;1999.90;999.90;;;;;;;7.24;52.12;101343.28;15660722;28;20055;-62
2022/01/30 21:15:24;;;;;;;1999.90;999.90;;;;;;;7.02;51.76;101329.94;15647237;28;20044;-63
2022/01/30 21:22:58;;;;;;;1999.90;999.90;;;;;;;7.29;51.07;101322.97;15639852;28;20037;-62
2022/01/30 21:30:45;;;;;;;1999.90;999.90;;;;;;;6.99;52.16;101307.53;15629929;28;20144;-63
2022/01/30 21:38:34;;;;;;;1999.90;999.90;;;;;;;7.02;51.50;101309.69;15611261;28;20080;-63
2022/01/30 21:46:26;;;;;;;1999.90;999.90;;;;;;;7.15;51.08;101301.47;15613008;28;20050;-62
2022/01/30 21:54:09;;;;;;;1999.90;999.90;;;;;;;7.08;50.98;101286.28;15613698;28;20406;-64
2022/01/30 22:01:43;;;;;;;1999.90;999.90;;;;;;;7.19;50.95;101285.03;15608394;28;20050;-63
2022/01/30 22:09:16;;;;;;;1999.90;999.90;;;;;;;7.00;51.60;101278.66;15615521;28;20049;-62
2022/01/30 22:16:50;;;;;;;1999.90;999.90;;;;;;;7.01;52.12;101260.88;15611304;28;20042;-62
2022/01/30 22:24:23;;;;;;;1999.90;999.90;;;;;;;6.97;52.80;101229.28;15594463;28;20148;-61
2022/01/30 22:31:58;;;;;;;1999.90;999.90;;;;;;;7.14;52.41;101226.84;15611403;28;20638;-61
2022/01/30 22:39:31;;;;;;;1999.90;999.90;;;;;;;6.91;53.17;101232.13;15630444;28;20085;-60
2022/01/30 22:47:05;;;;;;;1999.90;999.90;;;;;;;7.26;52.66;101221.69;15611229;28;20077;-62
2022/01/30 22:54:37;;;;;;;1999.90;999.90;;;;;;;7.14;53.11;101191.59;15594291;28;20394;-60
2022/01/30 23:02:11;;;;;;;1999.90;999.90;;;;;;;6.90;53.97;101191.63;15612079;28;20129;-60
2022/01/30 23:09:42;;;;;;;;;;;;;;;6.94;53.97;101176.03;15620510;28;20110;-62
2022/01/30 23:17:16;;;;;;;1999.90;999.90;;;;;;;7.00;53.60;101139.91;15623289;28;19928;-62
2022/01/30 23:24:48;;;;;;;;;;;;;;;6.87;53.07;101122.84;15624074;28;20057;-62
2022/01/30 23:32:22;;;;;;;1999.90;999.90;;;;;;;6.91;53.41;101112.81;15622031;28;20404;-59
2022/01/30 23:39:58;;;;;;;1999.90;999.90;;;;;;;6.93;53.03;101093.09;15645154;28;20136;-63
2022/01/30 23:47:32;;;;;;;1999.90;999.90;;;;;;;6.46;54.40;101089.31;15619566;28;20050;-60
2022/01/30 23:55:04;;;;;;;;;;;;;;;6.84;55.23;101075.47;15622299;28;20082;-61
